createdAt,value
2022-11-23T00:01:36.515Z,3.83
2022-11-23T00:04:08.031Z,4.50
2022-11-23T00:06:38.613Z,4.83
2022-11-23T00:09:07.064Z,4.80
2022-11-23T00:11:36.358Z,3.20
2022-11-23T00:14:04.578Z,5.07
2022-11-23T00:16:32.369Z,8.57
2022-11-23T00:19:02.388Z,4.67
2022-11-23T00:21:32.888Z,3.20
2022-11-23T00:24:00.857Z,5.27
2022-11-23T00:26:28.632Z,6.97
2022-11-23T00:28:56.248Z,3.07
2022-11-23T00:31:27.723Z,3.67
2022-11-23T00:33:57.660Z,4.37
2022-11-23T00:36:27.668Z,3.23
2022-11-23T00:38:55.667Z,7.03
2022-11-23T00:41:26.900Z,4.57
2022-11-23T00:43:54.665Z,3.83
2022-11-23T00:46:25.489Z,3.57
2022-11-23T00:48:55.408Z,5.90
2022-11-23T00:51:30.275Z,4.20
2022-11-23T00:53:59.415Z,5.23
2022-11-23T00:56:29.725Z,5.93
2022-11-23T00:58:59.310Z,3.03
2022-11-23T01:01:31.019Z,3.10
2022-11-23T01:04:00.386Z,4.73
2022-11-23T01:06:36.812Z,4.43
2022-11-23T01:09:14.271Z,3.23
2022-11-23T01:11:41.824Z,4.90
2022-11-23T01:14:09.310Z,5.60
2022-11-23T01:16:41.291Z,5.63
2022-11-23T01:19:17.446Z,5.10
2022-11-23T01:21:48.266Z,4.10
2022-11-23T01:24:22.317Z,4.60
2022-11-23T01:26:54.805Z,4.03
2022-11-23T01:29:25.983Z,4.70
2022-11-23T01:31:53.537Z,4.60
2022-11-23T01:34:22.306Z,2.70
2022-11-23T01:36:50.938Z,5.23
2022-11-23T01:39:18.508Z,4.07
2022-11-23T01:41:46.585Z,6.03
2022-11-23T01:44:33.977Z,4.33
2022-11-23T01:47:05.170Z,4.03
2022-11-23T01:49:42.815Z,4.37
2022-11-23T01:52:24.541Z,6.60
2022-11-23T01:55:00.597Z,5.90
2022-11-23T01:57:39.287Z,4.13
2022-11-23T02:00:08.369Z,3.73
2022-11-23T02:02:54.264Z,6.63
2022-11-23T02:05:31.202Z,5.47
2022-11-23T02:08:02.843Z,3.27
2022-11-23T02:10:32.255Z,4.77
2022-11-23T02:13:11.432Z,4.37
2022-11-23T02:15:39.897Z,4.37
2022-11-23T02:18:25.233Z,3.70
2022-11-23T02:20:54.497Z,5.07
2022-11-23T02:23:51.371Z,7.03
2022-11-23T02:26:26.394Z,5.03
2022-11-23T02:29:16.458Z,5.57
2022-11-23T02:31:44.017Z,5.23
2022-11-23T02:34:11.523Z,3.50
2022-11-23T02:36:41.646Z,7.73
2022-11-23T02:39:27.921Z,5.50
2022-11-23T02:41:56.591Z,3.50
2022-11-23T02:44:48.742Z,6.37
2022-11-23T02:47:16.933Z,4.60
2022-11-23T02:49:48.199Z,4.23
2022-11-23T02:52:18.316Z,3.50
2022-11-23T02:54:46.853Z,4.93
2022-11-23T02:57:14.983Z,2.83
2022-11-23T02:59:46.351Z,3.80
2022-11-23T03:02:13.948Z,3.77
2022-11-23T03:04:41.477Z,3.80
2022-11-23T03:07:09.182Z,4.27
2022-11-23T03:09:36.865Z,3.83
2022-11-23T03:12:04.594Z,4.30
2022-11-23T03:14:32.238Z,6.00
2022-11-23T03:17:00.739Z,3.53
2022-11-23T03:19:32.222Z,4.80
2022-11-23T03:22:00.138Z,4.60
2022-11-23T03:24:31.188Z,3.73
2022-11-23T03:26:59.881Z,4.43
2022-11-23T03:29:27.422Z,5.50
2022-11-23T03:31:57.539Z,4.07
2022-11-23T03:34:25.548Z,10.87
2022-11-23T03:36:53.065Z,5.13
2022-11-23T03:39:21.117Z,7.63
2022-11-23T03:42:08.998Z,8.67
2022-11-23T03:44:36.923Z,6.07
2022-11-23T03:47:05.688Z,7.17
2022-11-23T03:49:38.490Z,7.23
2022-11-23T03:52:06.147Z,6.57
2022-11-23T03:54:33.792Z,4.90
2022-11-23T03:57:01.297Z,5.77
2022-11-23T03:59:28.871Z,7.13
2022-11-23T04:02:02.213Z,8.10
2022-11-23T04:04:33.672Z,5.10
2022-11-23T04:07:25.094Z,8.87
2022-11-23T04:09:58.251Z,9.23
2022-11-23T04:12:46.356Z,8.23
2022-11-23T04:15:15.295Z,6.60
2022-11-23T04:17:43.419Z,6.53
2022-11-23T04:20:11.719Z,7.07
2022-11-23T04:22:39.346Z,4.43
2022-11-23T04:25:07.515Z,39.77
2022-11-23T04:27:35.037Z,38.70
2022-11-23T04:30:04.023Z,6.13
2022-11-23T04:32:31.962Z,8.47
2022-11-23T04:35:00.384Z,11.53
2022-11-23T04:37:28.237Z,13.07
2022-11-23T04:39:55.769Z,18.83
2022-11-23T04:42:46.066Z,10.87
2022-11-23T04:45:14.579Z,8.90
2022-11-23T04:47:43.575Z,10.20
2022-11-23T04:50:14.312Z,9.03
2022-11-23T04:52:45.461Z,10.03
2022-11-23T04:55:19.731Z,8.40
2022-11-23T04:57:55.578Z,9.90
2022-11-23T05:00:25.525Z,8.70
2022-11-23T05:02:55.718Z,9.60
2022-11-23T05:05:27.338Z,10.90
2022-11-23T05:07:56.678Z,12.77
2022-11-23T05:10:27.316Z,11.10
2022-11-23T05:12:59.049Z,9.90
2022-11-23T05:15:27.413Z,11.37
2022-11-23T05:18:00.314Z,12.37
2022-11-23T05:20:28.005Z,13.27
2022-11-23T05:22:55.544Z,15.13
2022-11-23T05:25:26.123Z,13.33
2022-11-23T05:28:16.547Z,11.37
2022-11-23T05:30:49.435Z,8.03
2022-11-23T05:33:17.022Z,8.43
2022-11-23T05:35:44.935Z,9.90
2022-11-23T05:38:12.602Z,9.30
2022-11-23T05:40:41.066Z,11.20
2022-11-23T05:43:10.250Z,9.63
2022-11-23T05:45:37.887Z,10.17
2022-11-23T05:48:06.492Z,8.13
2022-11-23T05:50:55.159Z,11.90
2022-11-23T05:53:29.034Z,11.73
2022-11-23T05:56:07.815Z,11.17
2022-11-23T05:58:43.009Z,11.57
2022-11-23T06:01:11.461Z,11.97
2022-11-23T06:03:40.225Z,9.93
2022-11-23T06:06:07.983Z,11.27
2022-11-23T06:08:40.578Z,10.07
2022-11-23T06:11:08.330Z,10.97
2022-11-23T06:13:35.846Z,8.30
2022-11-23T06:16:03.612Z,8.37
2022-11-23T06:18:44.293Z,9.33
2022-11-23T06:21:11.854Z,11.10
2022-11-23T06:23:39.363Z,17.30
2022-11-23T06:26:07.766Z,11.70
2022-11-23T06:28:37.140Z,9.73
2022-11-23T06:31:07.012Z,9.30
2022-11-23T06:33:35.691Z,10.00
2022-11-23T06:36:04.701Z,10.77
2022-11-23T06:38:38.591Z,9.30
2022-11-23T06:41:18.962Z,7.77
2022-11-23T06:43:48.750Z,9.13
2022-11-23T06:46:25.339Z,8.47
2022-11-23T06:48:52.860Z,9.33
2022-11-23T06:51:24.172Z,9.27
2022-11-23T06:53:52.706Z,16.73
2022-11-23T06:56:20.857Z,19.60
2022-11-23T06:58:48.321Z,15.30
2022-11-23T07:01:23.801Z,12.23
2022-11-23T07:03:59.747Z,11.67
2022-11-23T07:06:33.791Z,12.13
2022-11-23T07:09:09.281Z,14.37
2022-11-23T07:12:03.055Z,10.20
2022-11-23T07:14:30.599Z,12.40
2022-11-23T07:16:58.654Z,8.33
2022-11-23T07:19:26.250Z,14.50
2022-11-23T07:21:59.750Z,9.37
2022-11-23T07:24:27.467Z,8.97
2022-11-23T07:26:54.876Z,8.90
2022-11-23T07:29:22.686Z,10.83
2022-11-23T07:31:50.242Z,12.07
2022-11-23T07:34:17.841Z,14.37
2022-11-23T07:36:45.336Z,15.33
2022-11-23T07:39:14.475Z,8.67
2022-11-23T07:41:42.389Z,8.00
2022-11-23T07:44:42.253Z,12.93
2022-11-23T07:47:29.823Z,13.57
2022-11-23T07:49:57.321Z,15.07
2022-11-23T07:52:25.019Z,15.53
2022-11-23T07:54:52.568Z,16.13
2022-11-23T07:57:20.057Z,14.70
2022-11-23T07:59:47.605Z,16.10
2022-11-23T08:02:16.513Z,23.83
2022-11-23T08:04:44.198Z,21.47
2022-11-23T08:07:12.144Z,14.70
2022-11-23T08:09:39.726Z,13.80
2022-11-23T08:12:07.934Z,12.93
2022-11-23T08:14:35.708Z,14.13
2022-11-23T08:17:03.671Z,12.53
2022-11-23T08:19:31.194Z,10.37
2022-11-23T08:21:58.705Z,11.77
2022-11-23T08:24:26.257Z,13.43
2022-11-23T08:26:53.723Z,15.83
2022-11-23T08:29:21.334Z,14.93
2022-11-23T08:31:48.782Z,14.03
2022-11-23T08:34:18.031Z,12.27
2022-11-23T08:36:46.198Z,17.40
2022-11-23T08:39:14.880Z,16.80
2022-11-23T08:41:42.944Z,21.40
2022-11-23T08:44:11.436Z,19.83
2022-11-23T08:46:40.473Z,14.27
2022-11-23T08:49:08.123Z,26.73
2022-11-23T08:51:36.006Z,20.90
2022-11-23T08:54:03.518Z,23.47
2022-11-23T08:56:31.015Z,27.03
2022-11-23T08:58:58.481Z,23.53
2022-11-23T09:01:26.252Z,18.53
2022-11-23T09:03:55.022Z,15.03
2022-11-23T09:06:29.071Z,14.43
2022-11-23T09:08:57.132Z,16.63
2022-11-23T09:11:26.331Z,20.00
2022-11-23T09:13:54.017Z,19.20
2022-11-23T09:16:21.775Z,18.40
2022-11-23T09:18:50.139Z,17.87
2022-11-23T09:21:17.711Z,17.17
2022-11-23T09:23:45.304Z,15.83
2022-11-23T09:26:12.840Z,16.43
2022-11-23T09:28:44.758Z,16.73
2022-11-23T09:31:12.654Z,15.43
2022-11-23T09:33:40.096Z,16.63
2022-11-23T09:36:08.196Z,13.57
2022-11-23T09:38:55.650Z,26.03
2022-11-23T09:41:53.457Z,19.83
2022-11-23T09:44:54.419Z,19.03
2022-11-23T09:47:36.834Z,22.60
2022-11-23T09:50:33.665Z,19.77
2022-11-23T09:53:11.889Z,22.40
2022-11-23T09:55:49.465Z,19.50
2022-11-23T09:58:21.171Z,11.03
2022-11-23T10:00:59.631Z,19.10
2022-11-23T10:03:29.345Z,12.60
2022-11-23T10:06:20.581Z,23.60
2022-11-23T10:08:56.789Z,18.40
2022-11-23T10:12:01.756Z,16.50
2022-11-23T10:15:04.980Z,25.30
2022-11-23T10:18:05.844Z,14.70
2022-11-23T10:20:43.892Z,10.80
2022-11-23T10:23:34.553Z,15.07
2022-11-23T10:26:02.107Z,13.93
2022-11-23T10:28:32.949Z,12.90
2022-11-23T10:31:23.493Z,14.70
2022-11-23T10:34:10.825Z,14.67
2022-11-23T10:36:41.416Z,39.23
2022-11-23T10:39:21.858Z,17.43
2022-11-23T10:41:51.888Z,12.70
2022-11-23T10:44:29.207Z,15.30
2022-11-23T10:46:57.078Z,13.53
2022-11-23T10:49:33.586Z,13.00
2022-11-23T10:52:05.879Z,13.10
2022-11-23T10:54:36.481Z,18.47
2022-11-23T10:57:37.103Z,17.37
2022-11-23T11:00:17.957Z,13.53
2022-11-23T11:02:51.663Z,15.40
2022-11-23T11:08:20.810Z,17.13
2022-11-23T11:11:20.047Z,15.93
2022-11-23T11:13:49.492Z,54.17
2022-11-23T11:16:27.990Z,42.07
2022-11-23T11:18:56.479Z,15.37
2022-11-23T11:21:33.578Z,13.03
2022-11-23T11:24:14.213Z,9.80
2022-11-23T11:26:59.542Z,10.27
2022-11-23T11:29:39.062Z,44.97
2022-11-23T11:32:49.392Z,23.20
2022-11-23T11:35:42.953Z,14.30
2022-11-23T11:39:01.647Z,14.40
2022-11-23T11:41:36.169Z,12.17
2022-11-23T11:44:24.640Z,11.10
2022-11-23T11:47:00.612Z,12.50
2022-11-23T11:49:43.809Z,11.03
2022-11-23T11:52:24.981Z,12.03
2022-11-23T11:55:18.485Z,9.37
2022-11-23T11:57:56.521Z,16.77
2022-11-23T12:00:24.134Z,12.30
2022-11-23T12:03:22.023Z,10.33
2022-11-23T12:05:56.351Z,14.50
2022-11-23T12:09:07.624Z,11.63
2022-11-23T12:11:35.519Z,14.37
2022-11-23T12:14:09.382Z,11.53
2022-11-23T12:17:32.066Z,11.37
2022-11-23T12:20:29.032Z,17.60
2022-11-23T12:22:58.047Z,8.23
2022-11-23T12:25:36.771Z,9.63
2022-11-23T12:28:23.307Z,17.53
2022-11-23T12:31:11.902Z,30.20
2022-11-23T12:34:31.903Z,21.13
2022-11-23T12:37:22.349Z,10.40
2022-11-23T12:40:17.329Z,11.80
2022-11-23T12:42:55.045Z,10.53
2022-11-23T12:46:03.344Z,21.60
2022-11-23T12:49:06.594Z,48.83
2022-11-23T12:51:48.706Z,14.60
2022-11-23T12:54:48.132Z,11.20
2022-11-23T12:57:30.615Z,20.07
2022-11-23T13:00:18.525Z,8.13
2022-11-23T13:02:55.039Z,8.30
2022-11-23T13:05:40.639Z,11.03
2022-11-23T13:08:22.599Z,11.90
2022-11-23T13:11:19.234Z,7.90
2022-11-23T13:14:16.795Z,7.40
2022-11-23T13:17:22.168Z,8.93
2022-11-23T13:20:42.890Z,9.67
2022-11-23T13:23:10.666Z,11.23
2022-11-23T13:25:38.783Z,8.77
2022-11-23T13:28:31.589Z,11.97
2022-11-23T13:31:27.766Z,15.13
2022-11-23T13:34:01.768Z,7.03
2022-11-23T13:37:10.455Z,19.80
2022-11-23T13:39:57.224Z,7.93
2022-11-23T13:42:31.546Z,13.27
2022-11-23T13:45:39.825Z,11.07
2022-11-23T13:48:13.262Z,7.55
2022-11-23T13:50:49.682Z,11.93
2022-11-23T13:53:27.380Z,13.07
2022-11-23T13:56:15.346Z,10.90
2022-11-23T13:59:19.161Z,6.73
2022-11-23T14:02:08.461Z,7.00
2022-11-23T14:04:41.688Z,20.30
2022-11-23T14:07:47.581Z,8.53
2022-11-23T14:10:23.171Z,10.37
2022-11-23T14:13:18.558Z,9.67
2022-11-23T14:15:56.936Z,9.47
2022-11-23T14:19:04.387Z,11.07
2022-11-23T14:22:12.485Z,12.83
2022-11-23T14:25:17.399Z,9.27
2022-11-23T14:28:25.086Z,16.70
2022-11-23T14:31:21.000Z,9.07
2022-11-23T14:34:19.526Z,12.87
2022-11-23T14:37:14.469Z,15.40
2022-11-23T14:39:47.693Z,11.47
2022-11-23T14:42:20.800Z,12.70
2022-11-23T14:45:13.752Z,15.33
2022-11-23T14:47:42.988Z,24.80
2022-11-23T14:50:31.575Z,17.10
2022-11-23T14:53:11.818Z,27.43
2022-11-23T14:55:40.192Z,22.23
2022-11-23T14:58:12.139Z,16.83
2022-11-23T15:00:43.481Z,22.37
2022-11-23T15:06:18.012Z,27.20
2022-11-23T15:09:03.615Z,21.90
2022-11-23T15:11:34.044Z,30.50
2022-11-23T15:14:04.754Z,41.67
2022-11-23T15:16:42.759Z,29.13
2022-11-23T15:19:27.502Z,47.50
2022-11-23T15:21:56.816Z,24.00
2022-11-23T15:24:45.458Z,68.80
2022-11-23T15:27:22.358Z,386.93
2022-11-23T15:30:03.282Z,652.57
2022-11-23T15:32:34.740Z,285.17
2022-11-23T15:35:08.317Z,182.63
2022-11-23T15:37:48.899Z,171.77
2022-11-23T15:40:19.371Z,111.10
2022-11-23T15:42:50.994Z,112.20
2022-11-23T15:45:37.449Z,263.10
2022-11-23T15:48:12.280Z,341.13
2022-11-23T15:50:51.609Z,426.63
2022-11-23T15:53:22.562Z,389.53
2022-11-23T15:55:54.913Z,474.53
2022-11-23T15:58:25.424Z,250.97
2022-11-23T16:01:16.183Z,150.40
2022-11-23T16:03:58.412Z,576.83
2022-11-23T16:06:40.322Z,86.80
2022-11-23T16:09:51.238Z,158.03
2022-11-23T16:12:34.181Z,370.23
2022-11-23T16:15:49.603Z,648.70
2022-11-23T16:18:28.172Z,585.13
2022-11-23T16:21:04.128Z,479.90
2022-11-23T16:23:54.583Z,556.93
2022-11-23T16:26:34.526Z,210.87
2022-11-23T16:29:27.255Z,162.80
2022-11-23T16:32:03.790Z,153.97
2022-11-23T16:34:33.366Z,199.47
2022-11-23T16:37:06.099Z,220.67
2022-11-23T16:39:35.626Z,596.23
2022-11-23T16:42:04.800Z,284.10
2022-11-23T16:44:41.216Z,144.83
2022-11-23T16:47:31.098Z,168.23
2022-11-23T16:50:00.043Z,635.10
2022-11-23T16:52:29.393Z,199.07
2022-11-23T16:54:59.673Z,140.23
2022-11-23T16:57:59.931Z,113.60
2022-11-23T17:00:29.058Z,221.57
2022-11-23T17:03:00.113Z,217.87
2022-11-23T17:05:28.903Z,259.00
2022-11-23T17:08:02.028Z,127.40
2022-11-23T17:10:33.123Z,145.13
2022-11-23T17:13:04.481Z,80.07
2022-11-23T17:15:32.211Z,55.90
2022-11-23T17:18:01.173Z,60.97
2022-11-23T17:20:31.020Z,60.30
2022-11-23T17:23:03.392Z,48.77
2022-11-23T17:25:35.693Z,45.70
2022-11-23T17:28:22.110Z,58.57
2022-11-23T17:30:52.040Z,46.77
2022-11-23T17:33:22.739Z,41.70
2022-11-23T17:35:56.087Z,35.20
2022-11-23T17:38:27.158Z,47.60
2022-11-23T17:40:59.421Z,56.50
2022-11-23T17:43:31.465Z,35.23
2022-11-23T17:46:04.241Z,37.33
2022-11-23T17:48:42.136Z,35.30
2022-11-23T17:51:16.348Z,61.50
2022-11-23T17:53:45.953Z,39.60
2022-11-23T17:56:24.223Z,63.37
2022-11-23T17:59:01.641Z,74.73
2022-11-23T18:01:33.130Z,85.27
2022-11-23T18:04:05.122Z,82.03
2022-11-23T18:06:37.053Z,79.07
2022-11-23T18:09:08.017Z,85.83
2022-11-23T18:11:38.506Z,95.20
2022-11-23T18:14:10.212Z,100.27
2022-11-23T18:16:40.127Z,98.73
2022-11-23T18:19:15.088Z,107.67
2022-11-23T18:21:43.965Z,108.43
2022-11-23T18:24:22.511Z,110.97
2022-11-23T18:26:52.322Z,107.50
2022-11-23T18:29:25.386Z,103.90
2022-11-23T18:31:57.417Z,108.67
2022-11-23T18:34:28.178Z,108.90
2022-11-23T18:36:59.055Z,138.30
2022-11-23T18:39:51.413Z,122.13
2022-11-23T18:42:25.341Z,118.90
2022-11-23T18:44:57.974Z,118.37
2022-11-23T18:47:30.082Z,106.40
2022-11-23T18:50:06.667Z,110.47
2022-11-23T18:52:35.696Z,100.63
2022-11-23T18:55:07.331Z,95.27
2022-11-23T18:57:43.852Z,95.57
2022-11-23T19:00:30.634Z,93.60
2022-11-23T19:03:22.850Z,75.47
2022-11-23T19:05:54.511Z,69.93
2022-11-23T19:08:27.082Z,73.33
2022-11-23T19:10:56.885Z,60.37
2022-11-23T19:13:31.226Z,66.37
2022-11-23T19:16:03.036Z,67.83
2022-11-23T19:18:41.456Z,59.77
2022-11-23T19:21:22.720Z,64.90
2022-11-23T19:23:56.454Z,81.03
2022-11-23T19:26:30.204Z,101.93
2022-11-23T19:29:05.327Z,96.87
2022-11-23T19:31:35.415Z,90.50
2022-11-23T19:34:12.833Z,109.10
2022-11-23T19:36:43.071Z,105.67
2022-11-23T19:39:11.356Z,78.30
2022-11-23T19:41:39.792Z,90.17
2022-11-23T19:44:09.364Z,84.13
2022-11-23T19:46:37.292Z,72.60
2022-11-23T19:49:07.259Z,67.53
2022-11-23T19:51:39.316Z,66.70
2022-11-23T19:54:10.288Z,70.37
2022-11-23T19:56:38.333Z,72.53
2022-11-23T19:59:06.562Z,60.03
2022-11-23T20:01:34.495Z,66.17
2022-11-23T20:04:09.736Z,59.00
2022-11-23T20:06:42.513Z,60.00
2022-11-23T20:09:22.860Z,64.23
2022-11-23T20:11:51.834Z,64.33
2022-11-23T20:14:21.533Z,51.70
2022-11-23T20:16:51.131Z,64.57
2022-11-23T20:19:21.186Z,53.27
2022-11-23T20:21:50.907Z,67.77
2022-11-23T20:24:18.545Z,70.03
2022-11-23T20:26:48.398Z,74.23
2022-11-23T20:29:17.299Z,80.37
2022-11-23T20:31:45.061Z,80.27
2022-11-23T20:34:16.914Z,69.50
2022-11-23T20:36:48.379Z,65.73
2022-11-23T20:39:16.745Z,74.00
2022-11-23T20:41:45.335Z,70.70
2022-11-23T20:44:15.527Z,66.73
2022-11-23T20:49:33.415Z,172.33
2022-11-23T20:52:02.605Z,119.90
2022-11-23T20:54:30.201Z,100.03
2022-11-23T20:57:03.113Z,83.03
2022-11-23T20:59:33.089Z,62.27
2022-11-23T21:02:01.092Z,60.00
2022-11-23T21:04:28.795Z,46.20
2022-11-23T21:06:56.379Z,44.30
2022-11-23T21:09:24.008Z,39.83
2022-11-23T21:12:10.015Z,34.97
2022-11-23T21:14:38.073Z,34.33
2022-11-23T21:17:06.665Z,38.60
2022-11-23T21:19:37.751Z,32.60
2022-11-23T21:22:15.294Z,27.73
2022-11-23T21:24:45.408Z,23.17
2022-11-23T21:27:14.024Z,28.43
2022-11-23T21:29:44.109Z,30.93
2022-11-23T21:32:14.778Z,28.97
2022-11-23T21:34:44.981Z,26.80
2022-11-23T21:37:13.156Z,29.90
2022-11-23T21:39:47.921Z,31.10
2022-11-23T21:42:18.809Z,29.37
2022-11-23T21:44:46.454Z,24.40
2022-11-23T21:47:14.959Z,20.93
2022-11-23T21:49:43.634Z,23.53
2022-11-23T21:52:11.172Z,20.10
2022-11-23T21:54:38.823Z,17.67
2022-11-23T21:57:06.376Z,19.07
2022-11-23T21:59:33.905Z,22.27
2022-11-23T22:02:04.744Z,16.97
2022-11-23T22:04:32.384Z,19.20
2022-11-23T22:07:00.147Z,19.80
2022-11-23T22:09:28.130Z,21.97
2022-11-23T22:11:55.845Z,21.33
2022-11-23T22:14:23.362Z,27.77
2022-11-23T22:16:51.248Z,29.07
2022-11-23T22:19:19.091Z,35.37
2022-11-23T22:21:47.623Z,26.33
2022-11-23T22:24:22.281Z,28.40
2022-11-23T22:26:49.790Z,21.23
2022-11-23T22:29:17.424Z,21.10
2022-11-23T22:31:45.216Z,18.33
2022-11-23T22:34:14.793Z,18.03
2022-11-23T22:36:43.255Z,20.83
2022-11-23T22:39:11.154Z,15.87
2022-11-23T22:41:39.716Z,20.30
2022-11-23T22:44:10.090Z,16.43
2022-11-23T22:46:40.078Z,16.97
2022-11-23T22:49:07.943Z,21.17
2022-11-23T22:51:36.027Z,23.17
2022-11-23T22:54:04.525Z,20.87
2022-11-23T22:56:32.745Z,20.27
2022-11-23T22:59:00.626Z,21.60
2022-11-23T23:01:30.867Z,23.23
2022-11-23T23:04:01.899Z,22.93
2022-11-23T23:06:36.056Z,19.20
2022-11-23T23:09:07.242Z,23.17
2022-11-23T23:11:36.022Z,20.40
2022-11-23T23:14:03.782Z,20.80
2022-11-23T23:16:31.540Z,28.93
2022-11-23T23:18:59.893Z,19.80
2022-11-23T23:21:30.717Z,23.47
2022-11-23T23:24:01.299Z,26.50
2022-11-23T23:26:29.880Z,28.27
2022-11-23T23:29:00.382Z,27.27
2022-11-23T23:31:29.967Z,25.70
2022-11-23T23:33:59.117Z,25.27
2022-11-23T23:36:26.640Z,26.67
2022-11-23T23:38:54.272Z,23.53
2022-11-23T23:41:22.060Z,22.60
2022-11-23T23:43:49.661Z,22.37
2022-11-23T23:46:17.729Z,22.43
2022-11-23T23:48:45.528Z,24.70
2022-11-23T23:51:22.401Z,26.77
2022-11-23T23:53:51.390Z,33.50
2022-11-23T23:56:27.336Z,32.43
2022-11-23T23:59:00.231Z,27.27
